Austin, Indiana
Current Conditions -  °F | °C
As of 6:50 AM on Saturday 01 Nov 2014 (Local Time) from KBAK Reporting Station
Overcast Overcast  
Wind Chill: 20°   Ceiling: 8000
Heat Index: 32°   Visibility: 10mi
Dew Point: 27°   Wind: 21mph
Humidity: 80%   Direction: 350°N
Pressure: 30.24"   Gusts: 30mph
Location:  38.76°N, 85.81°W
Report Text: KBAK 011050Z 35018G26KT 10SM OVC080 00/M03 A3024
Loading
Personal Weather Stations






























Interactive Weather Map
Tropical Storm Tracking
New forecast layout! Learn more

10-Day Weather Forecast

Advertisements
Track Severe Weather on mobile